首页
METAR-TAF:

METAR-TAF

机场 :

乞力马扎罗山, 坦桑尼亚

纬度: 03-25S, 经度: 037-04E, 海拔: 891米

当前天气观测

该预报发布于1小时和8分钟前的18:00 UTC
风速4节,风向东南
温度 22°C
湿度 94%
气压 1018 hPa
能见度10公里或以上
少量云层高于2300英尺, 积雨云.
多云层高于2400英尺

METAR: HTKJ 281800Z 14004KT 9999 FEW023CB BKN024 22/21 Q1018 NOSIG

时间: 22:08 (19:08 UTC)

预报

该预报发布于2小时和8分钟前的17:00 UTC
预报有效从28日的 18点(UTC)到 29日的 18点(UTC)
风速5节,风向
能见度10公里或以上
少量云层高于2400英尺, 积雨云.
多云层高于2500英尺
成为
从 28日的 20点(UTC)到 28日的 23点(UTC)
多云层高于2300英尺

TAF: HTKJ 281700Z 2818/2918 09005KT 9999 FEW024CB BKN025 BECMG 2820/2823 BKN023

超过4000个机场的气象观测和天气预报(METAR&TAF报告)。

可查询的气象台以黄色和红色小点在地图上表示。

将鼠标移到小点上方,可查看气象台名称。

然后点击查看天气观测和预报。

如需切换地图:点击带黑十字的绿色按钮放大地图;点击带横线的绿色按钮缩小地图;或者点击绿色箭头查看邻近地区的地图。


METAR-TAF: